Main page
METAR-TAF:

METAR-TAF

Airports :

Base Aérea de Armilla

Granada, Spain

latitude: 37-08N, longitude: 003-38-08W, elevation: 700 m

Current weather observation

The report was made 1 hour and 25 minutes ago, at 18:00 UTC
Wind 5 kt from the South/Southwest
Temperature 18°C
Humidity 64%
Pressure 1015 hPa
Visibility 10 km or more
Scattered clouds at a height of 5000 ft

METAR: LEGA 171800Z 21005KT 9999 SCT050 18/11 Q1015

Time: 21:25 (19:25 UTC)

Forecast

The report was made 5 hours and 25 minutes ago, at 14:00 UTC
Forecast valid from 17 at 15 UTC to 17 at 24 UTC
Wind 3 kt from variable directions
Visibility 10 km or more
Scattered clouds at a height of 4000 ft
Probability 30% :
Temporary
from 17 at 17 UTC to 17 at 20 UTC
Wind 10 kt from the South

TAF: LEGA 171400Z 1715/1724 VRB03KT 9999 SCT040 PROB30 TEMPO 1717/1720 18010KT

Weather observations and forecasts of more than 4000 airports (METAR and TAF reports).

The available stations are represented by yellow and red dots on the map.

Hover mouse over dot to see the name of the station.

Then click to see weather observations and forecasts.

To change the map : click on the green buttons with a black cross to zoom in, on the green button with a dash to zoom out, or on the green arrows for adjacent maps.


METAR-TAF: